Aérodrome :
LOGIN :

S'inscrire | Disclaimer

   EN    FR    IT 

 










Légende :    VFR   VFR Marginal   IFR   IFR Intensif   IFR Très Intensif
Visi : 
Plafond : 
>= 8 km
>= 3000ft
5 à 8 km
1000 à 3000 ft
1500m à 5 km
500 à 1000 ft
800 à 1500m
200 à 500 ft
< 800m
< 200 ft
Symboles :   Orages  Brouillard  Fortes neiges  Fortes précipitations  Vent > 20 kt
SIGMETs :   Divers  Orages  Givrage  Turbulence  Onde Orograph.  Cendres Volcan.







- Altitude de l'aérodrome : 230 ft


ETHB - Buckeburg Army

DERNIER METAR :
  • 221720Z 21011KT 9999 FEW020 FEW035CB BKN160 22/09 Q1008 BLU

METARs EXPIRÉS :
  • 221620Z 22007KT 9999 -SHRA FEW045CB BKN080 24/11 Q1009 BLU
  • 221520Z 17004KT 9999 FEW045 BKN240 25/13 Q1009 BLU+

Prévision TAF périmée.
Pas de NOTAMs connus pour ce terrain.
2 SIGMETs publiés pour la FIR Bremen (EDWW) :
 
Orages fréquents avec grêle
EDWW SIGMET 2 VALID 221730/221900 EDZH
EDWW BREMEN FIR FRQ TSGR FCST WI N5335 E00636 - N5333 E00751 - N5216 E00732 - N5140 E00711 - N5131 E00550 - N5248 E00701 - N5335 E00636 TOP FL370 MOV NE 30KT WKN=
Orages fréquents avec grêle
EDWW SIGMET 1 VALID 221650/221830 EDZH
EDWW BREMEN FIR FRQ TSGR FCST WI N5222 E01000 - N5129 E01025 - N5120 E00955 - N5121 E00908 - N5220 E00907 - N5222 E01000 TOP FL370 MOV NE 30KT WKN=



MET'MAP, la Météo Aéronautique d'un coup d'oeil ! - Copyright ORBIFLY Décembre 2007 - Disclaimer

ORBIFLY MET'MAP TEAM :

Programmation & Développement : Alexandra Zaïnal
Conception & Développement : Baudouin d'Aumeries
Co-Programmation & Développement : Marc-Olivier Méhu
Soutien technique & logistique : Manuel Goepfert

Contact : metmap@orbifly.com




SOURCES & CREDITS :

   NOAA